sensor_id;sensor_type;location;lat;lon;timestamp;temperature;humidity
45785;DHT22;31489;51.404;5.474;2024-02-14T00:02:24;11.40;86.30
45785;DHT22;31489;51.404;5.474;2024-02-14T00:04:53;11.50;86.40
45785;DHT22;31489;51.404;5.474;2024-02-14T00:07:22;11.40;86.40
45785;DHT22;31489;51.404;5.474;2024-02-14T00:09:48;11.50;86.60
45785;DHT22;31489;51.404;5.474;2024-02-14T00:12:14;11.50;86.60
45785;DHT22;31489;51.404;5.474;2024-02-14T00:14:42;11.40;86.70
45785;DHT22;31489;51.404;5.474;2024-02-14T00:17:08;11.50;86.90
45785;DHT22;31489;51.404;5.474;2024-02-14T00:19:35;11.50;87.00
45785;DHT22;31489;51.404;5.474;2024-02-14T00:22:00;11.50;87.00
45785;DHT22;31489;51.404;5.474;2024-02-14T00:24:29;11.50;87.00
45785;DHT22;31489;51.404;5.474;2024-02-14T00:26:55;11.50;87.20
45785;DHT22;31489;51.404;5.474;2024-02-14T00:29:22;11.50;87.10
45785;DHT22;31489;51.404;5.474;2024-02-14T00:31:56;11.50;87.10
45785;DHT22;31489;51.404;5.474;2024-02-14T00:34:22;11.50;87.30
45785;DHT22;31489;51.404;5.474;2024-02-14T00:36:47;11.60;87.20
45785;DHT22;31489;51.404;5.474;2024-02-14T00:39:13;11.60;87.20
45785;DHT22;31489;51.404;5.474;2024-02-14T00:41:39;11.60;87.30
45785;DHT22;31489;51.404;5.474;2024-02-14T00:44:04;11.60;87.40
45785;DHT22;31489;51.404;5.474;2024-02-14T00:46:30;11.60;87.40
45785;DHT22;31489;51.404;5.474;2024-02-14T00:48:59;11.60;87.40
45785;DHT22;31489;51.404;5.474;2024-02-14T00:51:25;11.60;87.40
45785;DHT22;31489;51.404;5.474;2024-02-14T00:53:52;11.70;87.50
45785;DHT22;31489;51.404;5.474;2024-02-14T00:56:17;11.70;87.40
45785;DHT22;31489;51.404;5.474;2024-02-14T00:58:50;11.70;87.40
45785;DHT22;31489;51.404;5.474;2024-02-14T01:01:19;11.70;87.50
45785;DHT22;31489;51.404;5.474;2024-02-14T01:03:44;11.70;87.40
45785;DHT22;31489;51.404;5.474;2024-02-14T01:06:11;11.80;87.40
45785;DHT22;31489;51.404;5.474;2024-02-14T01:08:36;11.80;87.50
45785;DHT22;31489;51.404;5.474;2024-02-14T01:11:04;11.80;87.40
45785;DHT22;31489;51.404;5.474;2024-02-14T01:13:30;11.90;87.40
45785;DHT22;31489;51.404;5.474;2024-02-14T01:15:56;11.90;87.40
45785;DHT22;31489;51.404;5.474;2024-02-14T01:18:24;11.90;87.40
45785;DHT22;31489;51.404;5.474;2024-02-14T01:20:50;11.90;87.30
45785;DHT22;31489;51.404;5.474;2024-02-14T01:23:16;12.00;87.90
45785;DHT22;31489;51.404;5.474;2024-02-14T01:25:41;12.00;87.90
45785;DHT22;31489;51.404;5.474;2024-02-14T01:28:08;12.00;87.30
45785;DHT22;31489;51.404;5.474;2024-02-14T01:30:34;12.00;87.20
45785;DHT22;31489;51.404;5.474;2024-02-14T01:33:01;12.00;87.20
45785;DHT22;31489;51.404;5.474;2024-02-14T01:35:30;12.10;87.20
45785;DHT22;31489;51.404;5.474;2024-02-14T01:37:55;12.10;87.10
45785;DHT22;31489;51.404;5.474;2024-02-14T01:40:21;12.10;87.10
45785;DHT22;31489;51.404;5.474;2024-02-14T01:42:47;12.10;86.90
45785;DHT22;31489;51.404;5.474;2024-02-14T01:45:13;12.20;86.90
45785;DHT22;31489;51.404;5.474;2024-02-14T01:47:38;12.20;86.90
45785;DHT22;31489;51.404;5.474;2024-02-14T01:50:07;12.20;86.90
45785;DHT22;31489;51.404;5.474;2024-02-14T01:52:37;12.20;86.80
45785;DHT22;31489;51.404;5.474;2024-02-14T01:55:04;12.20;86.80
45785;DHT22;31489;51.404;5.474;2024-02-14T01:57:31;12.20;86.80
45785;DHT22;31489;51.404;5.474;2024-02-14T01:59:58;12.30;86.80
45785;DHT22;31489;51.404;5.474;2024-02-14T02:02:26;12.30;86.90
45785;DHT22;31489;51.404;5.474;2024-02-14T02:04:52;12.30;86.80
45785;DHT22;31489;51.404;5.474;2024-02-14T02:07:18;12.30;86.90
45785;DHT22;31489;51.404;5.474;2024-02-14T02:09:48;12.30;86.90
45785;DHT22;31489;51.404;5.474;2024-02-14T02:12:13;12.30;87.00
45785;DHT22;31489;51.404;5.474;2024-02-14T02:14:39;12.30;87.10
45785;DHT22;31489;51.404;5.474;2024-02-14T02:17:06;12.30;87.10
45785;DHT22;31489;51.404;5.474;2024-02-14T02:19:34;12.30;87.20
45785;DHT22;31489;51.404;5.474;2024-02-14T02:22:00;12.30;87.30
45785;DHT22;31489;51.404;5.474;2024-02-14T02:24:29;12.30;87.40
45785;DHT22;31489;51.404;5.474;2024-02-14T02:26:57;12.30;87.60
45785;DHT22;31489;51.404;5.474;2024-02-14T02:29:23;12.30;87.60
45785;DHT22;31489;51.404;5.474;2024-02-14T02:31:48;12.30;87.70
45785;DHT22;31489;51.404;5.474;2024-02-14T02:34:14;12.20;87.80
45785;DHT22;31489;51.404;5.474;2024-02-14T02:36:42;12.20;87.80
45785;DHT22;31489;51.404;5.474;2024-02-14T02:39:09;12.20;87.90
45785;DHT22;31489;51.404;5.474;2024-02-14T02:41:34;12.20;88.00
45785;DHT22;31489;51.404;5.474;2024-02-14T02:44:00;12.20;88.10
45785;DHT22;31489;51.404;5.474;2024-02-14T02:46:27;12.20;88.10
45785;DHT22;31489;51.404;5.474;2024-02-14T02:48:52;12.20;88.20
45785;DHT22;31489;51.404;5.474;2024-02-14T02:51:22;12.20;88.20
45785;DHT22;31489;51.404;5.474;2024-02-14T02:53:48;12.20;88.30
45785;DHT22;31489;51.404;5.474;2024-02-14T02:56:13;12.20;88.30
45785;DHT22;31489;51.404;5.474;2024-02-14T02:58:40;12.20;88.40
45785;DHT22;31489;51.404;5.474;2024-02-14T03:01:09;12.20;88.40
45785;DHT22;31489;51.404;5.474;2024-02-14T03:03:37;12.20;88.50
45785;DHT22;31489;51.404;5.474;2024-02-14T03:06:04;12.30;88.60
45785;DHT22;31489;51.404;5.474;2024-02-14T03:08:31;12.30;88.60
45785;DHT22;31489;51.404;5.474;2024-02-14T03:11:04;12.30;89.10
45785;DHT22;31489;51.404;5.474;2024-02-14T03:13:31;12.30;88.60
45785;DHT22;31489;51.404;5.474;2024-02-14T03:15:56;12.30;88.60
45785;DHT22;31489;51.404;5.474;2024-02-14T03:18:24;12.30;88.60
45785;DHT22;31489;51.404;5.474;2024-02-14T03:20:50;12.30;88.60
45785;DHT22;31489;51.404;5.474;2024-02-14T03:23:15;12.40;88.70
45785;DHT22;31489;51.404;5.474;2024-02-14T03:25:41;12.40;88.70
45785;DHT22;31489;51.404;5.474;2024-02-14T03:28:08;12.40;88.70
45785;DHT22;31489;51.404;5.474;2024-02-14T03:30:34;12.40;88.80
45785;DHT22;31489;51.404;5.474;2024-02-14T03:33:00;12.40;88.80
45785;DHT22;31489;51.404;5.474;2024-02-14T03:35:29;12.40;88.90
45785;DHT22;31489;51.404;5.474;2024-02-14T03:37:54;12.40;88.80
45785;DHT22;31489;51.404;5.474;2024-02-14T03:40:21;12.50;88.90
45785;DHT22;31489;51.404;5.474;2024-02-14T03:42:47;12.40;88.80
45785;DHT22;31489;51.404;5.474;2024-02-14T03:45:17;12.50;88.90
45785;DHT22;31489;51.404;5.474;2024-02-14T03:47:42;12.50;88.80
45785;DHT22;31489;51.404;5.474;2024-02-14T03:50:08;12.50;88.80
45785;DHT22;31489;51.404;5.474;2024-02-14T03:52:34;12.50;88.80
45785;DHT22;31489;51.404;5.474;2024-02-14T03:55:00;12.50;88.90
45785;DHT22;31489;51.404;5.474;2024-02-14T03:57:29;12.60;88.80
45785;DHT22;31489;51.404;5.474;2024-02-14T04:00:00;12.60;88.80
45785;DHT22;31489;51.404;5.474;2024-02-14T04:02:29;12.60;88.80
45785;DHT22;31489;51.404;5.474;2024-02-14T04:04:55;12.60;88.70
45785;DHT22;31489;51.404;5.474;2024-02-14T04:07:20;12.70;88.80
45785;DHT22;31489;51.404;5.474;2024-02-14T04:09:47;12.70;88.80
45785;DHT22;31489;51.404;5.474;2024-02-14T04:12:13;12.70;88.80
45785;DHT22;31489;51.404;5.474;2024-02-14T04:14:39;12.70;88.80
45785;DHT22;31489;51.404;5.474;2024-02-14T04:17:05;12.70;88.80
45785;DHT22;31489;51.404;5.474;2024-02-14T04:19:37;12.70;88.80
45785;DHT22;31489;51.404;5.474;2024-02-14T04:22:03;12.70;88.80
45785;DHT22;31489;51.404;5.474;2024-02-14T04:24:28;12.70;88.80
45785;DHT22;31489;51.404;5.474;2024-02-14T04:26:55;12.70;88.80
45785;DHT22;31489;51.404;5.474;2024-02-14T04:29:22;12.70;88.80
45785;DHT22;31489;51.404;5.474;2024-02-14T04:31:48;12.70;88.80
45785;DHT22;31489;51.404;5.474;2024-02-14T04:34:14;12.80;88.90
45785;DHT22;31489;51.404;5.474;2024-02-14T04:36:40;12.80;88.90
45785;DHT22;31489;51.404;5.474;2024-02-14T04:39:06;12.70;89.50
45785;DHT22;31489;51.404;5.474;2024-02-14T04:41:34;12.80;89.00
45785;DHT22;31489;51.404;5.474;2024-02-14T04:44:04;12.80;89.00
45785;DHT22;31489;51.404;5.474;2024-02-14T04:46:32;12.80;89.00
45785;DHT22;31489;51.404;5.474;2024-02-14T04:48:58;12.80;89.00
45785;DHT22;31489;51.404;5.474;2024-02-14T04:51:23;12.80;89.00
45785;DHT22;31489;51.404;5.474;2024-02-14T04:53:49;12.80;89.00
45785;DHT22;31489;51.404;5.474;2024-02-14T04:56:14;12.80;89.10
45785;DHT22;31489;51.404;5.474;2024-02-14T04:58:40;12.80;89.10
45785;DHT22;31489;51.404;5.474;2024-02-14T05:01:06;12.80;89.20
45785;DHT22;31489;51.404;5.474;2024-02-14T05:03:32;12.80;89.20
45785;DHT22;31489;51.404;5.474;2024-02-14T05:05:58;12.80;89.30
45785;DHT22;31489;51.404;5.474;2024-02-14T05:08:24;12.80;89.30
45785;DHT22;31489;51.404;5.474;2024-02-14T05:10:50;12.80;89.40
45785;DHT22;31489;51.404;5.474;2024-02-14T05:13:15;12.80;89.40
45785;DHT22;31489;51.404;5.474;2024-02-14T05:15:42;12.80;89.50
45785;DHT22;31489;51.404;5.474;2024-02-14T05:18:07;12.80;89.40
45785;DHT22;31489;51.404;5.474;2024-02-14T05:20:33;12.80;89.50
45785;DHT22;31489;51.404;5.474;2024-02-14T05:23:01;12.80;89.40
45785;DHT22;31489;51.404;5.474;2024-02-14T05:25:30;12.80;89.50
45785;DHT22;31489;51.404;5.474;2024-02-14T05:28:00;12.90;89.60
45785;DHT22;31489;51.404;5.474;2024-02-14T05:30:29;12.90;89.60
45785;DHT22;31489;51.404;5.474;2024-02-14T05:32:57;12.80;89.70
45785;DHT22;31489;51.404;5.474;2024-02-14T05:35:22;12.90;89.80
45785;DHT22;31489;51.404;5.474;2024-02-14T05:37:49;12.90;89.80
45785;DHT22;31489;51.404;5.474;2024-02-14T05:40:15;12.90;89.90
45785;DHT22;31489;51.404;5.474;2024-02-14T05:42:41;12.90;89.90
45785;DHT22;31489;51.404;5.474;2024-02-14T05:45:10;12.90;90.00
45785;DHT22;31489;51.404;5.474;2024-02-14T05:47:36;12.90;90.00
45785;DHT22;31489;51.404;5.474;2024-02-14T05:50:01;12.90;90.00
45785;DHT22;31489;51.404;5.474;2024-02-14T05:52:27;12.90;90.00
45785;DHT22;31489;51.404;5.474;2024-02-14T05:54:53;12.90;90.10
45785;DHT22;31489;51.404;5.474;2024-02-14T05:57:19;12.90;90.10
45785;DHT22;31489;51.404;5.474;2024-02-14T05:59:45;12.90;90.10
45785;DHT22;31489;51.404;5.474;2024-02-14T06:02:11;12.90;90.40
45785;DHT22;31489;51.404;5.474;2024-02-14T06:04:37;12.90;90.10
45785;DHT22;31489;51.404;5.474;2024-02-14T06:07:02;12.90;90.10
45785;DHT22;31489;51.404;5.474;2024-02-14T06:09:30;12.90;90.20
45785;DHT22;31489;51.404;5.474;2024-02-14T06:11:56;12.90;90.20
45785;DHT22;31489;51.404;5.474;2024-02-14T06:14:24;12.90;90.20
45785;DHT22;31489;51.404;5.474;2024-02-14T06:16:50;12.90;90.30
45785;DHT22;31489;51.404;5.474;2024-02-14T06:19:16;12.90;90.30
45785;DHT22;31489;51.404;5.474;2024-02-14T06:21:44;12.90;90.30
45785;DHT22;31489;51.404;5.474;2024-02-14T06:24:10;12.90;90.30
45785;DHT22;31489;51.404;5.474;2024-02-14T06:26:38;12.90;90.30
45785;DHT22;31489;51.404;5.474;2024-02-14T06:29:04;12.90;90.30
45785;DHT22;31489;51.404;5.474;2024-02-14T06:31:30;12.90;90.30
45785;DHT22;31489;51.404;5.474;2024-02-14T06:33:55;12.90;90.30
45785;DHT22;31489;51.404;5.474;2024-02-14T06:36:21;12.90;90.30
45785;DHT22;31489;51.404;5.474;2024-02-14T06:38:47;13.00;90.30
45785;DHT22;31489;51.404;5.474;2024-02-14T06:41:13;13.00;90.30
45785;DHT22;31489;51.404;5.474;2024-02-14T06:43:38;13.00;90.30
45785;DHT22;31489;51.404;5.474;2024-02-14T06:46:05;13.00;90.30
45785;DHT22;31489;51.404;5.474;2024-02-14T06:48:31;13.00;90.30
45785;DHT22;31489;51.404;5.474;2024-02-14T06:50:57;13.00;90.30
45785;DHT22;31489;51.404;5.474;2024-02-14T06:53:26;13.10;90.30
45785;DHT22;31489;51.404;5.474;2024-02-14T06:55:51;13.10;90.30
45785;DHT22;31489;51.404;5.474;2024-02-14T06:58:17;13.10;90.30
45785;DHT22;31489;51.404;5.474;2024-02-14T07:00:42;13.10;90.30
45785;DHT22;31489;51.404;5.474;2024-02-14T07:03:09;13.10;90.30
45785;DHT22;31489;51.404;5.474;2024-02-14T07:05:35;13.10;90.30
45785;DHT22;31489;51.404;5.474;2024-02-14T07:08:01;13.10;90.30
45785;DHT22;31489;51.404;5.474;2024-02-14T07:10:27;13.10;90.30
45785;DHT22;31489;51.404;5.474;2024-02-14T07:12:52;13.20;90.40
45785;DHT22;31489;51.404;5.474;2024-02-14T07:15:26;13.10;90.40
45785;DHT22;31489;51.404;5.474;2024-02-14T07:17:54;13.10;90.40
45785;DHT22;31489;51.404;5.474;2024-02-14T07:20:21;13.10;90.40
45785;DHT22;31489;51.404;5.474;2024-02-14T07:22:48;13.10;90.40
45785;DHT22;31489;51.404;5.474;2024-02-14T07:25:21;13.10;90.40
45785;DHT22;31489;51.404;5.474;2024-02-14T07:27:47;13.10;90.40
45785;DHT22;31489;51.404;5.474;2024-02-14T07:30:15;13.10;90.40
45785;DHT22;31489;51.404;5.474;2024-02-14T07:32:41;13.10;90.40
45785;DHT22;31489;51.404;5.474;2024-02-14T07:35:07;13.10;90.40
45785;DHT22;31489;51.404;5.474;2024-02-14T07:37:32;13.10;90.40
45785;DHT22;31489;51.404;5.474;2024-02-14T07:39:58;13.10;90.40
45785;DHT22;31489;51.404;5.474;2024-02-14T07:42:27;13.10;90.40
45785;DHT22;31489;51.404;5.474;2024-02-14T07:44:52;13.10;90.40
45785;DHT22;31489;51.404;5.474;2024-02-14T07:47:19;13.10;90.40
45785;DHT22;31489;51.404;5.474;2024-02-14T07:49:45;13.10;90.40
45785;DHT22;31489;51.404;5.474;2024-02-14T07:52:10;13.20;90.40
45785;DHT22;31489;51.404;5.474;2024-02-14T07:54:36;13.20;90.40
45785;DHT22;31489;51.404;5.474;2024-02-14T07:57:01;13.20;90.40
45785;DHT22;31489;51.404;5.474;2024-02-14T07:59:27;13.20;90.40
45785;DHT22;31489;51.404;5.474;2024-02-14T08:01:53;13.20;90.40
45785;DHT22;31489;51.404;5.474;2024-02-14T08:04:19;13.30;90.40
45785;DHT22;31489;51.404;5.474;2024-02-14T08:06:46;13.30;90.40
45785;DHT22;31489;51.404;5.474;2024-02-14T08:09:12;13.30;90.30
45785;DHT22;31489;51.404;5.474;2024-02-14T08:11:40;13.30;90.30
45785;DHT22;31489;51.404;5.474;2024-02-14T08:14:12;13.30;90.30
45785;DHT22;31489;51.404;5.474;2024-02-14T08:16:38;13.40;90.30
45785;DHT22;31489;51.404;5.474;2024-02-14T08:19:03;13.40;90.20
45785;DHT22;31489;51.404;5.474;2024-02-14T08:21:29;13.40;90.20
45785;DHT22;31489;51.404;5.474;2024-02-14T08:23:55;13.40;90.20
45785;DHT22;31489;51.404;5.474;2024-02-14T08:26:23;13.40;90.20
45785;DHT22;31489;51.404;5.474;2024-02-14T08:28:49;13.40;90.10
45785;DHT22;31489;51.404;5.474;2024-02-14T08:31:15;13.40;90.10
45785;DHT22;31489;51.404;5.474;2024-02-14T08:33:41;13.40;90.20
45785;DHT22;31489;51.404;5.474;2024-02-14T08:36:07;13.40;90.10
45785;DHT22;31489;51.404;5.474;2024-02-14T08:38:33;13.50;90.10
45785;DHT22;31489;51.404;5.474;2024-02-14T08:41:03;13.50;90.10
45785;DHT22;31489;51.404;5.474;2024-02-14T08:43:29;13.50;90.10
45785;DHT22;31489;51.404;5.474;2024-02-14T08:45:55;13.50;90.10
45785;DHT22;31489;51.404;5.474;2024-02-14T08:48:21;13.50;90.10
45785;DHT22;31489;51.404;5.474;2024-02-14T08:50:50;13.60;90.10
45785;DHT22;31489;51.404;5.474;2024-02-14T08:53:16;13.60;90.10
45785;DHT22;31489;51.404;5.474;2024-02-14T08:55:42;13.60;90.10
45785;DHT22;31489;51.404;5.474;2024-02-14T08:58:07;13.60;90.20
45785;DHT22;31489;51.404;5.474;2024-02-14T09:00:35;13.70;90.20
45785;DHT22;31489;51.404;5.474;2024-02-14T09:03:02;13.70;90.10
45785;DHT22;31489;51.404;5.474;2024-02-14T09:05:28;13.70;90.10
45785;DHT22;31489;51.404;5.474;2024-02-14T09:07:54;13.80;90.10
45785;DHT22;31489;51.404;5.474;2024-02-14T09:10:23;13.80;90.10
45785;DHT22;31489;51.404;5.474;2024-02-14T09:12:49;13.80;90.00
45785;DHT22;31489;51.404;5.474;2024-02-14T09:15:14;13.80;90.00
45785;DHT22;31489;51.404;5.474;2024-02-14T09:17:43;13.80;90.00
45785;DHT22;31489;51.404;5.474;2024-02-14T09:20:09;13.80;90.10
45785;DHT22;31489;51.404;5.474;2024-02-14T09:22:35;13.90;90.10
45785;DHT22;31489;51.404;5.474;2024-02-14T09:25:01;13.90;90.20
45785;DHT22;31489;51.404;5.474;2024-02-14T09:27:30;13.90;90.20
45785;DHT22;31489;51.404;5.474;2024-02-14T09:29:58;13.90;90.10
45785;DHT22;31489;51.404;5.474;2024-02-14T09:32:24;13.90;90.10
45785;DHT22;31489;51.404;5.474;2024-02-14T09:34:50;13.90;90.00
45785;DHT22;31489;51.404;5.474;2024-02-14T09:37:19;13.90;90.00
45785;DHT22;31489;51.404;5.474;2024-02-14T09:39:44;13.90;90.10
45785;DHT22;31489;51.404;5.474;2024-02-14T09:42:16;13.90;90.10
45785;DHT22;31489;51.404;5.474;2024-02-14T09:44:44;13.90;90.10
45785;DHT22;31489;51.404;5.474;2024-02-14T09:47:11;14.00;90.10
45785;DHT22;31489;51.404;5.474;2024-02-14T09:49:37;14.00;90.10
45785;DHT22;31489;51.404;5.474;2024-02-14T09:52:05;14.00;90.10
45785;DHT22;31489;51.404;5.474;2024-02-14T09:54:32;14.10;90.10
45785;DHT22;31489;51.404;5.474;2024-02-14T09:57:02;14.10;90.10
45785;DHT22;31489;51.404;5.474;2024-02-14T09:59:29;14.10;90.00
45785;DHT22;31489;51.404;5.474;2024-02-14T10:01:54;14.10;90.00
45785;DHT22;31489;51.404;5.474;2024-02-14T10:04:21;14.20;90.00
45785;DHT22;31489;51.404;5.474;2024-02-14T10:06:48;14.10;90.00
45785;DHT22;31489;51.404;5.474;2024-02-14T10:09:20;14.20;90.00
45785;DHT22;31489;51.404;5.474;2024-02-14T10:11:45;14.20;90.10
45785;DHT22;31489;51.404;5.474;2024-02-14T10:14:12;14.20;90.10
45785;DHT22;31489;51.404;5.474;2024-02-14T10:16:38;14.20;90.10
45785;DHT22;31489;51.404;5.474;2024-02-14T10:19:04;14.20;90.40
45785;DHT22;31489;51.404;5.474;2024-02-14T10:21:30;14.20;90.20
45785;DHT22;31489;51.404;5.474;2024-02-14T10:24:04;14.20;90.20
45785;DHT22;31489;51.404;5.474;2024-02-14T10:26:32;14.10;90.20
45785;DHT22;31489;51.404;5.474;2024-02-14T10:28:58;14.20;90.20
45785;DHT22;31489;51.404;5.474;2024-02-14T10:31:26;14.20;90.20
45785;DHT22;31489;51.404;5.474;2024-02-14T10:33:55;14.10;90.30
45785;DHT22;31489;51.404;5.474;2024-02-14T10:36:23;14.10;90.30
45785;DHT22;31489;51.404;5.474;2024-02-14T10:38:50;14.20;90.30
45785;DHT22;31489;51.404;5.474;2024-02-14T10:41:17;14.10;90.40
45785;DHT22;31489;51.404;5.474;2024-02-14T10:43:43;14.10;90.40
45785;DHT22;31489;51.404;5.474;2024-02-14T10:46:19;14.20;90.50
45785;DHT22;31489;51.404;5.474;2024-02-14T10:49:02;14.20;90.50
45785;DHT22;31489;51.404;5.474;2024-02-14T10:51:31;14.20;90.50
45785;DHT22;31489;51.404;5.474;2024-02-14T10:54:02;14.20;90.50
45785;DHT22;31489;51.404;5.474;2024-02-14T10:56:29;14.20;90.50
45785;DHT22;31489;51.404;5.474;2024-02-14T10:58:58;14.20;90.60
45785;DHT22;31489;51.404;5.474;2024-02-14T11:01:26;14.20;90.60
45785;DHT22;31489;51.404;5.474;2024-02-14T11:03:53;14.20;90.60
45785;DHT22;31489;51.404;5.474;2024-02-14T11:06:21;14.20;90.70
45785;DHT22;31489;51.404;5.474;2024-02-14T11:09:03;14.20;90.90
45785;DHT22;31489;51.404;5.474;2024-02-14T11:11:33;14.20;90.70
45785;DHT22;31489;51.404;5.474;2024-02-14T11:13:59;14.20;90.70
45785;DHT22;31489;51.404;5.474;2024-02-14T11:16:26;14.30;90.70
45785;DHT22;31489;51.404;5.474;2024-02-14T11:19:08;14.20;90.70
45785;DHT22;31489;51.404;5.474;2024-02-14T11:21:44;14.30;90.80
45785;DHT22;31489;51.404;5.474;2024-02-14T11:24:12;14.30;90.70
45785;DHT22;31489;51.404;5.474;2024-02-14T11:26:48;14.30;90.70
45785;DHT22;31489;51.404;5.474;2024-02-14T11:29:17;14.30;90.70
45785;DHT22;31489;51.404;5.474;2024-02-14T11:31:47;14.20;90.70
45785;DHT22;31489;51.404;5.474;2024-02-14T11:34:15;14.20;90.70
45785;DHT22;31489;51.404;5.474;2024-02-14T11:36:44;14.20;90.70
45785;DHT22;31489;51.404;5.474;2024-02-14T11:39:13;14.30;90.80
45785;DHT22;31489;51.404;5.474;2024-02-14T11:41:39;14.20;90.80
45785;DHT22;31489;51.404;5.474;2024-02-14T11:44:07;14.20;90.80
45785;DHT22;31489;51.404;5.474;2024-02-14T11:46:34;14.30;90.90
45785;DHT22;31489;51.404;5.474;2024-02-14T11:49:07;14.30;90.90
45785;DHT22;31489;51.404;5.474;2024-02-14T11:51:42;14.30;90.90
45785;DHT22;31489;51.404;5.474;2024-02-14T11:54:09;14.30;90.90
45785;DHT22;31489;51.404;5.474;2024-02-14T11:56:38;14.30;90.90
45785;DHT22;31489;51.404;5.474;2024-02-14T11:59:07;14.30;90.90
45785;DHT22;31489;51.404;5.474;2024-02-14T12:01:36;14.40;90.90
45785;DHT22;31489;51.404;5.474;2024-02-14T12:04:05;14.40;90.90
45785;DHT22;31489;51.404;5.474;2024-02-14T12:06:33;14.40;90.90
45785;DHT22;31489;51.404;5.474;2024-02-14T12:09:02;14.50;90.90
45785;DHT22;31489;51.404;5.474;2024-02-14T12:11:34;14.50;90.90
45785;DHT22;31489;51.404;5.474;2024-02-14T12:14:05;14.50;90.80
45785;DHT22;31489;51.404;5.474;2024-02-14T12:16:31;14.60;90.80
45785;DHT22;31489;51.404;5.474;2024-02-14T12:19:05;14.60;90.80
45785;DHT22;31489;51.404;5.474;2024-02-14T12:21:38;14.60;90.80
45785;DHT22;31489;51.404;5.474;2024-02-14T12:26:33;14.70;90.60
45785;DHT22;31489;51.404;5.474;2024-02-14T12:29:03;14.70;90.70
45785;DHT22;31489;51.404;5.474;2024-02-14T12:31:30;14.70;90.70
45785;DHT22;31489;51.404;5.474;2024-02-14T12:33:57;14.70;90.60
45785;DHT22;31489;51.404;5.474;2024-02-14T12:36:25;14.70;90.70
45785;DHT22;31489;51.404;5.474;2024-02-14T12:38:52;14.70;90.70
45785;DHT22;31489;51.404;5.474;2024-02-14T12:41:18;14.80;90.70
45785;DHT22;31489;51.404;5.474;2024-02-14T12:43:44;14.70;90.70
45785;DHT22;31489;51.404;5.474;2024-02-14T12:46:10;14.70;90.70
45785;DHT22;31489;51.404;5.474;2024-02-14T12:48:35;14.70;90.70
45785;DHT22;31489;51.404;5.474;2024-02-14T12:51:01;14.70;90.80
45785;DHT22;31489;51.404;5.474;2024-02-14T12:53:27;14.70;90.80
45785;DHT22;31489;51.404;5.474;2024-02-14T12:55:52;14.60;90.80
45785;DHT22;31489;51.404;5.474;2024-02-14T12:58:18;14.70;90.90
45785;DHT22;31489;51.404;5.474;2024-02-14T13:00:44;14.60;90.90
45785;DHT22;31489;51.404;5.474;2024-02-14T13:03:11;14.60;91.00
45785;DHT22;31489;51.404;5.474;2024-02-14T13:05:37;14.60;91.00
45785;DHT22;31489;51.404;5.474;2024-02-14T13:08:03;14.60;91.00
45785;DHT22;31489;51.404;5.474;2024-02-14T13:10:29;14.60;91.00
45785;DHT22;31489;51.404;5.474;2024-02-14T13:12:59;14.60;91.00
45785;DHT22;31489;51.404;5.474;2024-02-14T13:15:25;14.60;91.00
45785;DHT22;31489;51.404;5.474;2024-02-14T13:17:50;14.60;91.10
45785;DHT22;31489;51.404;5.474;2024-02-14T13:20:16;14.60;91.10
45785;DHT22;31489;51.404;5.474;2024-02-14T13:22:42;14.60;91.20
45785;DHT22;31489;51.404;5.474;2024-02-14T13:25:08;14.60;91.20
45785;DHT22;31489;51.404;5.474;2024-02-14T13:27:35;14.60;91.20
45785;DHT22;31489;51.404;5.474;2024-02-14T13:30:01;14.60;91.30
45785;DHT22;31489;51.404;5.474;2024-02-14T13:32:27;14.60;91.50
45785;DHT22;31489;51.404;5.474;2024-02-14T13:34:52;14.60;91.30
45785;DHT22;31489;51.404;5.474;2024-02-14T13:37:18;14.60;91.30
45785;DHT22;31489;51.404;5.474;2024-02-14T13:39:45;14.60;91.30
45785;DHT22;31489;51.404;5.474;2024-02-14T13:42:10;14.60;91.30
45785;DHT22;31489;51.404;5.474;2024-02-14T13:44:39;14.60;91.40
45785;DHT22;31489;51.404;5.474;2024-02-14T13:47:07;14.60;91.40
45785;DHT22;31489;51.404;5.474;2024-02-14T13:49:33;14.60;91.40
45785;DHT22;31489;51.404;5.474;2024-02-14T13:51:59;14.60;91.40
45785;DHT22;31489;51.404;5.474;2024-02-14T13:54:27;14.60;91.40
45785;DHT22;31489;51.404;5.474;2024-02-14T13:56:53;14.60;91.40
45785;DHT22;31489;51.404;5.474;2024-02-14T13:59:20;14.60;91.50
45785;DHT22;31489;51.404;5.474;2024-02-14T14:01:46;14.60;91.50
45785;DHT22;31489;51.404;5.474;2024-02-14T14:04:12;14.60;91.50
45785;DHT22;31489;51.404;5.474;2024-02-14T14:06:38;14.60;91.50
45785;DHT22;31489;51.404;5.474;2024-02-14T14:09:05;14.60;91.60
45785;DHT22;31489;51.404;5.474;2024-02-14T14:11:37;14.60;91.60
45785;DHT22;31489;51.404;5.474;2024-02-14T14:14:03;14.60;91.60
45785;DHT22;31489;51.404;5.474;2024-02-14T14:16:29;14.60;91.70
45785;DHT22;31489;51.404;5.474;2024-02-14T14:18:54;14.60;91.70
45785;DHT22;31489;51.404;5.474;2024-02-14T14:21:20;14.60;91.70
45785;DHT22;31489;51.404;5.474;2024-02-14T14:23:46;14.60;91.70
45785;DHT22;31489;51.404;5.474;2024-02-14T14:26:12;14.70;91.70
45785;DHT22;31489;51.404;5.474;2024-02-14T14:28:39;14.70;91.80
45785;DHT22;31489;51.404;5.474;2024-02-14T14:31:04;14.70;91.80
45785;DHT22;31489;51.404;5.474;2024-02-14T14:33:30;14.70;91.70
45785;DHT22;31489;51.404;5.474;2024-02-14T14:35:59;14.70;91.80
45785;DHT22;31489;51.404;5.474;2024-02-14T14:38:27;14.70;91.80
45785;DHT22;31489;51.404;5.474;2024-02-14T14:40:55;14.70;91.80
45785;DHT22;31489;51.404;5.474;2024-02-14T14:43:21;14.70;91.80
45785;DHT22;31489;51.404;5.474;2024-02-14T14:45:47;14.80;91.80
45785;DHT22;31489;51.404;5.474;2024-02-14T14:48:12;14.80;91.90
45785;DHT22;31489;51.404;5.474;2024-02-14T14:50:38;14.80;91.90
45785;DHT22;31489;51.404;5.474;2024-02-14T14:53:07;14.80;91.90
45785;DHT22;31489;51.404;5.474;2024-02-14T14:55:56;14.80;92.00
45785;DHT22;31489;51.404;5.474;2024-02-14T14:58:23;14.80;92.10
45785;DHT22;31489;51.404;5.474;2024-02-14T15:00:56;14.80;92.00
45785;DHT22;31489;51.404;5.474;2024-02-14T15:03:22;14.80;92.00
45785;DHT22;31489;51.404;5.474;2024-02-14T15:05:49;14.80;92.00
45785;DHT22;31489;51.404;5.474;2024-02-14T15:08:14;14.80;92.00
45785;DHT22;31489;51.404;5.474;2024-02-14T15:10:44;14.80;92.00
45785;DHT22;31489;51.404;5.474;2024-02-14T15:13:09;14.80;92.00
45785;DHT22;31489;51.404;5.474;2024-02-14T15:15:36;14.90;92.10
45785;DHT22;31489;51.404;5.474;2024-02-14T15:18:02;14.80;92.10
45785;DHT22;31489;51.404;5.474;2024-02-14T15:20:28;14.90;92.10
45785;DHT22;31489;51.404;5.474;2024-02-14T15:22:55;14.90;92.10
45785;DHT22;31489;51.404;5.474;2024-02-14T15:25:21;14.90;92.10
45785;DHT22;31489;51.404;5.474;2024-02-14T15:27:47;14.90;92.10
45785;DHT22;31489;51.404;5.474;2024-02-14T15:30:26;14.90;92.10
45785;DHT22;31489;51.404;5.474;2024-02-14T15:33:11;14.90;92.10